sensor_id;sensor_type;location;lat;lon;timestamp;P1;durP1;ratioP1;P2;durP2;ratioP2
29218;SDS011;16421;50.202;7.852;2022-12-29T00:01:39;1.30;;;1.10;;
29218;SDS011;16421;50.202;7.852;2022-12-29T00:06:43;2.08;;;1.30;;
29218;SDS011;16421;50.202;7.852;2022-12-29T00:11:46;3.10;;;1.00;;
29218;SDS011;16421;50.202;7.852;2022-12-29T00:16:52;2.50;;;1.10;;
29218;SDS011;16421;50.202;7.852;2022-12-29T00:21:56;2.00;;;0.70;;
29218;SDS011;16421;50.202;7.852;2022-12-29T00:27:18;2.75;;;1.30;;
29218;SDS011;16421;50.202;7.852;2022-12-29T00:32:40;1.88;;;1.02;;
29218;SDS011;16421;50.202;7.852;2022-12-29T00:38:01;2.08;;;0.85;;
29218;SDS011;16421;50.202;7.852;2022-12-29T00:43:24;1.23;;;0.80;;
29218;SDS011;16421;50.202;7.852;2022-12-29T00:48:47;3.08;;;0.80;;
29218;SDS011;16421;50.202;7.852;2022-12-29T00:54:08;1.70;;;0.50;;
29218;SDS011;16421;50.202;7.852;2022-12-29T00:59:11;1.42;;;0.90;;
29218;SDS011;16421;50.202;7.852;2022-12-29T01:04:16;1.77;;;0.80;;
29218;SDS011;16421;50.202;7.852;2022-12-29T01:09:20;0.65;;;0.60;;
29218;SDS011;16421;50.202;7.852;2022-12-29T01:14:41;0.63;;;0.63;;
29218;SDS011;16421;50.202;7.852;2022-12-29T01:19:46;1.70;;;0.63;;
29218;SDS011;16421;50.202;7.852;2022-12-29T01:24:49;0.75;;;0.52;;
29218;SDS011;16421;50.202;7.852;2022-12-29T01:29:53;0.40;;;0.40;;
29218;SDS011;16421;50.202;7.852;2022-12-29T01:34:58;0.88;;;0.60;;
29218;SDS011;16421;50.202;7.852;2022-12-29T01:40:01;0.60;;;0.60;;
29218;SDS011;16421;50.202;7.852;2022-12-29T01:45:08;0.50;;;0.50;;
29218;SDS011;16421;50.202;7.852;2022-12-29T01:50:15;0.75;;;0.60;;
29218;SDS011;16421;50.202;7.852;2022-12-29T01:55:25;0.73;;;0.52;;
29218;SDS011;16421;50.202;7.852;2022-12-29T02:00:29;0.43;;;0.43;;
29218;SDS011;16421;50.202;7.852;2022-12-29T02:05:35;0.65;;;0.40;;
29218;SDS011;16421;50.202;7.852;2022-12-29T02:10:41;0.30;;;0.30;;
29218;SDS011;16421;50.202;7.852;2022-12-29T02:15:48;0.37;;;0.30;;
29218;SDS011;16421;50.202;7.852;2022-12-29T02:26:44;0.40;;;0.40;;
29218;SDS011;16421;50.202;7.852;2022-12-29T02:32:09;0.60;;;0.40;;
29218;SDS011;16421;50.202;7.852;2022-12-29T02:37:20;0.40;;;0.40;;
29218;SDS011;16421;50.202;7.852;2022-12-29T02:42:30;0.32;;;0.32;;
29218;SDS011;16421;50.202;7.852;2022-12-29T02:47:40;0.40;;;0.40;;
29218;SDS011;16421;50.202;7.852;2022-12-29T02:52:50;0.40;;;0.40;;
29218;SDS011;16421;50.202;7.852;2022-12-29T02:58:09;0.50;;;0.50;;
29218;SDS011;16421;50.202;7.852;2022-12-29T03:03:20;0.70;;;0.70;;
29218;SDS011;16421;50.202;7.852;2022-12-29T03:08:32;0.85;;;0.50;;
29218;SDS011;16421;50.202;7.852;2022-12-29T03:13:43;0.40;;;0.30;;
29218;SDS011;16421;50.202;7.852;2022-12-29T03:19:13;0.65;;;0.47;;
29218;SDS011;16421;50.202;7.852;2022-12-29T03:24:20;0.52;;;0.35;;
29218;SDS011;16421;50.202;7.852;2022-12-29T03:29:30;0.20;;;0.20;;
29218;SDS011;16421;50.202;7.852;2022-12-29T03:34:39;1.50;;;0.60;;
29218;SDS011;16421;50.202;7.852;2022-12-29T03:39:43;0.60;;;0.60;;
29218;SDS011;16421;50.202;7.852;2022-12-29T03:44:47;0.80;;;0.40;;
29218;SDS011;16421;50.202;7.852;2022-12-29T03:49:54;0.30;;;0.30;;
29218;SDS011;16421;50.202;7.852;2022-12-29T03:54:57;0.40;;;0.40;;
29218;SDS011;16421;50.202;7.852;2022-12-29T04:00:01;1.25;;;0.40;;
29218;SDS011;16421;50.202;7.852;2022-12-29T04:05:16;0.80;;;0.47;;
29218;SDS011;16421;50.202;7.852;2022-12-29T04:10:22;0.57;;;0.40;;
29218;SDS011;16421;50.202;7.852;2022-12-29T04:15:29;1.10;;;0.70;;
29218;SDS011;16421;50.202;7.852;2022-12-29T04:20:34;2.95;;;0.63;;
29218;SDS011;16421;50.202;7.852;2022-12-29T04:25:56;2.45;;;0.60;;
29218;SDS011;16421;50.202;7.852;2022-12-29T04:31:01;0.85;;;0.57;;
29218;SDS011;16421;50.202;7.852;2022-12-29T04:36:11;1.67;;;0.90;;
29218;SDS011;16421;50.202;7.852;2022-12-29T04:41:15;1.05;;;0.70;;
29218;SDS011;16421;50.202;7.852;2022-12-29T04:46:18;1.55;;;0.70;;
29218;SDS011;16421;50.202;7.852;2022-12-29T04:51:35;1.00;;;0.87;;
29218;SDS011;16421;50.202;7.852;2022-12-29T04:56:40;2.70;;;0.70;;
29218;SDS011;16421;50.202;7.852;2022-12-29T05:01:44;2.53;;;0.77;;
29218;SDS011;16421;50.202;7.852;2022-12-29T05:06:49;1.00;;;0.55;;
29218;SDS011;16421;50.202;7.852;2022-12-29T05:11:53;1.52;;;0.70;;
29218;SDS011;16421;50.202;7.852;2022-12-29T05:16:57;2.58;;;0.90;;
29218;SDS011;16421;50.202;7.852;2022-12-29T05:22:02;0.70;;;0.40;;
29218;SDS011;16421;50.202;7.852;2022-12-29T05:27:06;2.80;;;0.98;;
29218;SDS011;16421;50.202;7.852;2022-12-29T05:32:18;1.58;;;0.50;;
29218;SDS011;16421;50.202;7.852;2022-12-29T05:37:23;1.23;;;0.70;;
29218;SDS011;16421;50.202;7.852;2022-12-29T05:42:26;1.38;;;0.70;;
29218;SDS011;16421;50.202;7.852;2022-12-29T05:47:50;1.17;;;0.65;;
29218;SDS011;16421;50.202;7.852;2022-12-29T05:53:18;0.57;;;0.57;;
29218;SDS011;16421;50.202;7.852;2022-12-29T05:58:21;1.15;;;0.60;;
29218;SDS011;16421;50.202;7.852;2022-12-29T06:03:25;2.58;;;0.80;;
29218;SDS011;16421;50.202;7.852;2022-12-29T06:08:30;1.73;;;0.68;;
29218;SDS011;16421;50.202;7.852;2022-12-29T06:13:34;1.03;;;0.50;;
29218;SDS011;16421;50.202;7.852;2022-12-29T06:18:38;1.52;;;0.88;;
29218;SDS011;16421;50.202;7.852;2022-12-29T06:23:43;1.17;;;0.90;;
29218;SDS011;16421;50.202;7.852;2022-12-29T06:28:47;1.00;;;0.80;;
29218;SDS011;16421;50.202;7.852;2022-12-29T06:33:50;2.13;;;0.88;;
29218;SDS011;16421;50.202;7.852;2022-12-29T06:38:55;1.58;;;0.70;;
29218;SDS011;16421;50.202;7.852;2022-12-29T06:43:59;0.50;;;0.50;;
29218;SDS011;16421;50.202;7.852;2022-12-29T06:49:11;1.58;;;0.65;;
29218;SDS011;16421;50.202;7.852;2022-12-29T06:54:15;0.43;;;0.43;;
29218;SDS011;16421;50.202;7.852;2022-12-29T06:59:19;0.52;;;0.47;;
29218;SDS011;16421;50.202;7.852;2022-12-29T07:04:22;0.68;;;0.38;;
29218;SDS011;16421;50.202;7.852;2022-12-29T07:09:27;0.35;;;0.35;;
29218;SDS011;16421;50.202;7.852;2022-12-29T07:14:31;0.60;;;0.60;;
29218;SDS011;16421;50.202;7.852;2022-12-29T07:19:37;0.70;;;0.70;;
29218;SDS011;16421;50.202;7.852;2022-12-29T07:24:43;1.52;;;0.80;;
29218;SDS011;16421;50.202;7.852;2022-12-29T07:29:46;0.65;;;0.60;;
29218;SDS011;16421;50.202;7.852;2022-12-29T07:34:50;1.35;;;0.70;;
29218;SDS011;16421;50.202;7.852;2022-12-29T07:39:54;1.92;;;0.68;;
29218;SDS011;16421;50.202;7.852;2022-12-29T07:44:58;2.08;;;0.60;;
29218;SDS011;16421;50.202;7.852;2022-12-29T07:50:07;1.50;;;0.70;;
29218;SDS011;16421;50.202;7.852;2022-12-29T07:55:12;0.80;;;0.73;;
29218;SDS011;16421;50.202;7.852;2022-12-29T08:00:16;1.15;;;0.68;;
29218;SDS011;16421;50.202;7.852;2022-12-29T08:05:20;1.13;;;0.68;;
29218;SDS011;16421;50.202;7.852;2022-12-29T08:10:25;2.17;;;0.95;;
29218;SDS011;16421;50.202;7.852;2022-12-29T08:15:29;1.30;;;0.70;;
29218;SDS011;16421;50.202;7.852;2022-12-29T08:23:31;2.05;;;0.70;;
29218;SDS011;16421;50.202;7.852;2022-12-29T08:28:35;1.10;;;0.90;;
29218;SDS011;16421;50.202;7.852;2022-12-29T08:33:38;0.40;;;0.40;;
29218;SDS011;16421;50.202;7.852;2022-12-29T08:38:43;0.50;;;0.50;;
29218;SDS011;16421;50.202;7.852;2022-12-29T08:43:47;0.38;;;0.38;;
29218;SDS011;16421;50.202;7.852;2022-12-29T08:48:51;0.63;;;0.55;;
29218;SDS011;16421;50.202;7.852;2022-12-29T08:53:56;0.85;;;0.30;;
29218;SDS011;16421;50.202;7.852;2022-12-29T08:59:00;1.23;;;0.45;;
29218;SDS011;16421;50.202;7.852;2022-12-29T09:04:05;0.20;;;0.20;;
29218;SDS011;16421;50.202;7.852;2022-12-29T09:09:18;1.10;;;0.50;;
29218;SDS011;16421;50.202;7.852;2022-12-29T09:14:22;0.38;;;0.38;;
29218;SDS011;16421;50.202;7.852;2022-12-29T09:19:25;1.65;;;0.40;;
29218;SDS011;16421;50.202;7.852;2022-12-29T09:24:29;0.30;;;0.30;;
29218;SDS011;16421;50.202;7.852;2022-12-29T09:29:33;1.10;;;0.30;;
29218;SDS011;16421;50.202;7.852;2022-12-29T09:34:37;0.40;;;0.40;;
29218;SDS011;16421;50.202;7.852;2022-12-29T09:39:41;1.60;;;0.40;;
29218;SDS011;16421;50.202;7.852;2022-12-29T09:44:50;1.05;;;0.60;;
29218;SDS011;16421;50.202;7.852;2022-12-29T09:50:00;1.85;;;0.70;;
29218;SDS011;16421;50.202;7.852;2022-12-29T09:55:10;0.88;;;0.50;;
29218;SDS011;16421;50.202;7.852;2022-12-29T10:00:18;0.90;;;0.50;;
29218;SDS011;16421;50.202;7.852;2022-12-29T10:05:27;29.67;;;18.40;;
29218;SDS011;16421;50.202;7.852;2022-12-29T10:10:40;8.18;;;5.22;;
29218;SDS011;16421;50.202;7.852;2022-12-29T10:15:53;4.85;;;1.42;;
29218;SDS011;16421;50.202;7.852;2022-12-29T10:21:08;1.15;;;0.75;;
29218;SDS011;16421;50.202;7.852;2022-12-29T10:26:19;1.77;;;0.60;;
29218;SDS011;16421;50.202;7.852;2022-12-29T10:31:26;1.85;;;0.85;;
29218;SDS011;16421;50.202;7.852;2022-12-29T10:36:35;1.58;;;0.60;;
29218;SDS011;16421;50.202;7.852;2022-12-29T10:41:48;2.50;;;0.90;;
29218;SDS011;16421;50.202;7.852;2022-12-29T10:46:57;1.40;;;0.63;;
29218;SDS011;16421;50.202;7.852;2022-12-29T10:52:03;2.05;;;0.63;;
29218;SDS011;16421;50.202;7.852;2022-12-29T10:57:09;1.35;;;0.40;;
29218;SDS011;16421;50.202;7.852;2022-12-29T11:02:35;2.30;;;0.68;;
29218;SDS011;16421;50.202;7.852;2022-12-29T11:07:47;2.92;;;0.88;;
29218;SDS011;16421;50.202;7.852;2022-12-29T11:12:59;0.50;;;0.47;;
29218;SDS011;16421;50.202;7.852;2022-12-29T11:18:03;1.58;;;0.55;;
29218;SDS011;16421;50.202;7.852;2022-12-29T11:23:23;2.03;;;0.60;;
29218;SDS011;16421;50.202;7.852;2022-12-29T11:28:32;3.15;;;1.10;;
29218;SDS011;16421;50.202;7.852;2022-12-29T11:33:36;1.17;;;0.57;;
29218;SDS011;16421;50.202;7.852;2022-12-29T11:38:41;3.90;;;0.80;;
29218;SDS011;16421;50.202;7.852;2022-12-29T11:43:50;4.18;;;0.90;;
29218;SDS011;16421;50.202;7.852;2022-12-29T11:48:55;5.43;;;1.35;;
29218;SDS011;16421;50.202;7.852;2022-12-29T11:54:01;3.93;;;1.00;;
29218;SDS011;16421;50.202;7.852;2022-12-29T11:59:25;2.42;;;0.85;;
29218;SDS011;16421;50.202;7.852;2022-12-29T12:04:42;4.03;;;0.95;;
29218;SDS011;16421;50.202;7.852;2022-12-29T12:09:47;2.40;;;0.77;;
29218;SDS011;16421;50.202;7.852;2022-12-29T12:14:59;1.88;;;0.85;;
29218;SDS011;16421;50.202;7.852;2022-12-29T12:20:16;1.75;;;0.70;;
29218;SDS011;16421;50.202;7.852;2022-12-29T12:25:24;3.28;;;0.95;;
29218;SDS011;16421;50.202;7.852;2022-12-29T12:30:36;3.35;;;1.42;;
29218;SDS011;16421;50.202;7.852;2022-12-29T12:35:44;3.40;;;1.20;;
29218;SDS011;16421;50.202;7.852;2022-12-29T12:41:00;3.13;;;1.15;;
29218;SDS011;16421;50.202;7.852;2022-12-29T12:46:30;1.98;;;1.00;;
29218;SDS011;16421;50.202;7.852;2022-12-29T12:51:47;1.60;;;0.43;;
29218;SDS011;16421;50.202;7.852;2022-12-29T12:57:01;2.08;;;0.68;;
29218;SDS011;16421;50.202;7.852;2022-12-29T13:02:18;1.20;;;0.60;;
29218;SDS011;16421;50.202;7.852;2022-12-29T13:07:33;1.65;;;0.70;;
29218;SDS011;16421;50.202;7.852;2022-12-29T13:12:47;4.00;;;0.88;;
29218;SDS011;16421;50.202;7.852;2022-12-29T13:18:00;1.48;;;0.75;;
29218;SDS011;16421;50.202;7.852;2022-12-29T13:23:11;4.68;;;1.20;;
29218;SDS011;16421;50.202;7.852;2022-12-29T13:28:23;1.70;;;0.80;;
29218;SDS011;16421;50.202;7.852;2022-12-29T13:33:35;3.33;;;0.77;;
29218;SDS011;16421;50.202;7.852;2022-12-29T13:38:46;2.58;;;0.80;;
29218;SDS011;16421;50.202;7.852;2022-12-29T13:43:51;2.58;;;0.73;;
29218;SDS011;16421;50.202;7.852;2022-12-29T13:48:58;3.58;;;0.90;;
29218;SDS011;16421;50.202;7.852;2022-12-29T13:54:07;3.40;;;0.82;;
29218;SDS011;16421;50.202;7.852;2022-12-29T13:59:19;2.45;;;0.80;;
29218;SDS011;16421;50.202;7.852;2022-12-29T14:04:28;3.03;;;0.93;;
29218;SDS011;16421;50.202;7.852;2022-12-29T14:09:38;2.20;;;0.80;;
29218;SDS011;16421;50.202;7.852;2022-12-29T14:14:45;2.80;;;1.00;;
29218;SDS011;16421;50.202;7.852;2022-12-29T14:19:52;2.83;;;0.95;;
29218;SDS011;16421;50.202;7.852;2022-12-29T14:24:57;2.17;;;0.60;;
29218;SDS011;16421;50.202;7.852;2022-12-29T14:30:00;1.70;;;0.57;;
29218;SDS011;16421;50.202;7.852;2022-12-29T14:40:43;3.65;;;0.75;;
29218;SDS011;16421;50.202;7.852;2022-12-29T14:45:51;2.08;;;0.90;;
29218;SDS011;16421;50.202;7.852;2022-12-29T14:50:59;2.03;;;0.88;;
29218;SDS011;16421;50.202;7.852;2022-12-29T14:56:03;2.67;;;0.97;;
29218;SDS011;16421;50.202;7.852;2022-12-29T15:01:12;5.53;;;2.28;;
29218;SDS011;16421;50.202;7.852;2022-12-29T15:06:27;4.00;;;1.60;;
29218;SDS011;16421;50.202;7.852;2022-12-29T15:11:41;2.25;;;1.10;;
29218;SDS011;16421;50.202;7.852;2022-12-29T15:16:49;3.35;;;1.27;;
29218;SDS011;16421;50.202;7.852;2022-12-29T15:21:54;5.35;;;0.90;;
29218;SDS011;16421;50.202;7.852;2022-12-29T15:26:59;4.33;;;1.33;;
29218;SDS011;16421;50.202;7.852;2022-12-29T15:32:15;2.95;;;0.90;;
29218;SDS011;16421;50.202;7.852;2022-12-29T15:37:23;4.25;;;1.10;;
29218;SDS011;16421;50.202;7.852;2022-12-29T15:42:35;12.25;;;5.97;;
29218;SDS011;16421;50.202;7.852;2022-12-29T15:47:55;3.92;;;1.70;;
29218;SDS011;16421;50.202;7.852;2022-12-29T15:53:02;3.25;;;1.10;;
29218;SDS011;16421;50.202;7.852;2022-12-29T15:58:18;2.35;;;0.88;;
29218;SDS011;16421;50.202;7.852;2022-12-29T16:03:24;2.78;;;0.93;;
29218;SDS011;16421;50.202;7.852;2022-12-29T16:08:34;3.83;;;1.05;;
29218;SDS011;16421;50.202;7.852;2022-12-29T16:13:41;4.53;;;1.40;;
29218;SDS011;16421;50.202;7.852;2022-12-29T16:18:44;5.47;;;1.45;;
29218;SDS011;16421;50.202;7.852;2022-12-29T16:23:53;3.22;;;1.10;;
29218;SDS011;16421;50.202;7.852;2022-12-29T16:28:59;5.05;;;1.52;;
29218;SDS011;16421;50.202;7.852;2022-12-29T16:34:13;4.53;;;1.23;;
29218;SDS011;16421;50.202;7.852;2022-12-29T16:39:36;3.08;;;1.33;;
29218;SDS011;16421;50.202;7.852;2022-12-29T16:44:41;3.55;;;1.23;;
29218;SDS011;16421;50.202;7.852;2022-12-29T16:49:46;5.10;;;1.80;;
29218;SDS011;16421;50.202;7.852;2022-12-29T16:54:55;4.18;;;1.48;;
29218;SDS011;16421;50.202;7.852;2022-12-29T17:00:03;4.20;;;1.40;;
29218;SDS011;16421;50.202;7.852;2022-12-29T17:05:11;8.95;;;3.15;;
29218;SDS011;16421;50.202;7.852;2022-12-29T17:10:17;4.75;;;1.40;;
29218;SDS011;16421;50.202;7.852;2022-12-29T17:15:21;5.97;;;2.30;;
29218;SDS011;16421;50.202;7.852;2022-12-29T17:20:30;3.40;;;1.13;;
29218;SDS011;16421;50.202;7.852;2022-12-29T17:25:35;4.70;;;1.30;;
29218;SDS011;16421;50.202;7.852;2022-12-29T17:30:39;4.18;;;0.90;;
29218;SDS011;16421;50.202;7.852;2022-12-29T17:35:43;1.98;;;1.25;;
29218;SDS011;16421;50.202;7.852;2022-12-29T17:40:53;4.15;;;1.20;;
29218;SDS011;16421;50.202;7.852;2022-12-29T17:45:57;3.15;;;1.23;;
29218;SDS011;16421;50.202;7.852;2022-12-29T17:51:01;5.15;;;1.00;;
29218;SDS011;16421;50.202;7.852;2022-12-29T17:56:06;2.33;;;1.17;;
29218;SDS011;16421;50.202;7.852;2022-12-29T18:01:10;3.30;;;1.08;;
29218;SDS011;16421;50.202;7.852;2022-12-29T18:06:22;1.80;;;0.90;;
29218;SDS011;16421;50.202;7.852;2022-12-29T18:11:28;2.85;;;1.35;;
29218;SDS011;16421;50.202;7.852;2022-12-29T18:16:32;5.32;;;1.17;;
29218;SDS011;16421;50.202;7.852;2022-12-29T18:21:35;2.35;;;0.93;;
29218;SDS011;16421;50.202;7.852;2022-12-29T18:26:41;2.83;;;0.77;;
29218;SDS011;16421;50.202;7.852;2022-12-29T18:31:45;1.33;;;0.80;;
29218;SDS011;16421;50.202;7.852;2022-12-29T18:36:48;2.42;;;0.90;;
29218;SDS011;16421;50.202;7.852;2022-12-29T18:41:54;2.25;;;0.60;;
29218;SDS011;16421;50.202;7.852;2022-12-29T18:46:58;2.75;;;1.30;;
29218;SDS011;16421;50.202;7.852;2022-12-29T18:52:02;2.95;;;1.02;;
29218;SDS011;16421;50.202;7.852;2022-12-29T18:57:07;3.38;;;1.10;;
29218;SDS011;16421;50.202;7.852;2022-12-29T19:02:14;3.45;;;1.33;;
29218;SDS011;16421;50.202;7.852;2022-12-29T19:07:18;2.67;;;1.00;;
29218;SDS011;16421;50.202;7.852;2022-12-29T19:12:23;4.95;;;1.25;;
29218;SDS011;16421;50.202;7.852;2022-12-29T19:22:32;4.75;;;1.33;;
29218;SDS011;16421;50.202;7.852;2022-12-29T19:27:36;5.57;;;2.30;;
29218;SDS011;16421;50.202;7.852;2022-12-29T19:32:40;3.95;;;1.70;;
29218;SDS011;16421;50.202;7.852;2022-12-29T19:37:44;4.60;;;1.33;;
29218;SDS011;16421;50.202;7.852;2022-12-29T19:42:49;4.72;;;1.55;;
29218;SDS011;16421;50.202;7.852;2022-12-29T19:47:53;10.10;;;2.80;;
29218;SDS011;16421;50.202;7.852;2022-12-29T19:52:56;8.35;;;2.30;;
29218;SDS011;16421;50.202;7.852;2022-12-29T19:58:06;9.73;;;2.33;;
29218;SDS011;16421;50.202;7.852;2022-12-29T20:03:10;10.30;;;4.25;;
29218;SDS011;16421;50.202;7.852;2022-12-29T20:08:13;10.82;;;3.60;;
29218;SDS011;16421;50.202;7.852;2022-12-29T20:13:18;10.35;;;3.33;;
29218;SDS011;16421;50.202;7.852;2022-12-29T20:18:21;11.70;;;3.67;;
29218;SDS011;16421;50.202;7.852;2022-12-29T20:23:29;11.88;;;3.47;;
29218;SDS011;16421;50.202;7.852;2022-12-29T20:28:34;10.95;;;3.25;;
29218;SDS011;16421;50.202;7.852;2022-12-29T20:33:38;11.15;;;4.00;;
29218;SDS011;16421;50.202;7.852;2022-12-29T20:38:41;14.30;;;4.95;;
29218;SDS011;16421;50.202;7.852;2022-12-29T20:43:47;9.23;;;3.47;;
29218;SDS011;16421;50.202;7.852;2022-12-29T20:48:51;10.93;;;2.80;;
29218;SDS011;16421;50.202;7.852;2022-12-29T20:53:54;11.75;;;2.88;;
29218;SDS011;16421;50.202;7.852;2022-12-29T20:58:59;8.52;;;2.15;;
29218;SDS011;16421;50.202;7.852;2022-12-29T21:04:23;16.83;;;5.40;;
29218;SDS011;16421;50.202;7.852;2022-12-29T21:09:27;6.13;;;2.45;;
29218;SDS011;16421;50.202;7.852;2022-12-29T21:14:32;9.13;;;2.63;;
29218;SDS011;16421;50.202;7.852;2022-12-29T21:19:36;9.40;;;2.13;;
29218;SDS011;16421;50.202;7.852;2022-12-29T21:24:39;10.52;;;2.25;;
29218;SDS011;16421;50.202;7.852;2022-12-29T21:29:44;9.57;;;2.70;;
29218;SDS011;16421;50.202;7.852;2022-12-29T21:34:48;8.82;;;2.08;;
29218;SDS011;16421;50.202;7.852;2022-12-29T21:39:51;8.82;;;2.15;;
29218;SDS011;16421;50.202;7.852;2022-12-29T21:44:56;9.88;;;2.65;;
29218;SDS011;16421;50.202;7.852;2022-12-29T21:50:20;7.73;;;2.67;;
29218;SDS011;16421;50.202;7.852;2022-12-29T21:55:24;7.25;;;2.67;;
29218;SDS011;16421;50.202;7.852;2022-12-29T22:00:29;9.07;;;2.30;;
29218;SDS011;16421;50.202;7.852;2022-12-29T22:05:49;8.07;;;2.20;;
29218;SDS011;16421;50.202;7.852;2022-12-29T22:11:11;12.93;;;2.42;;
29218;SDS011;16421;50.202;7.852;2022-12-29T22:16:33;4.15;;;1.77;;
29218;SDS011;16421;50.202;7.852;2022-12-29T22:21:40;12.52;;;3.40;;
29218;SDS011;16421;50.202;7.852;2022-12-29T22:26:43;9.93;;;2.83;;
29218;SDS011;16421;50.202;7.852;2022-12-29T22:31:48;7.85;;;2.58;;
29218;SDS011;16421;50.202;7.852;2022-12-29T22:36:52;8.68;;;2.55;;
29218;SDS011;16421;50.202;7.852;2022-12-29T22:41:55;9.90;;;2.63;;
29218;SDS011;16421;50.202;7.852;2022-12-29T22:47:00;8.75;;;2.70;;
29218;SDS011;16421;50.202;7.852;2022-12-29T22:52:04;7.20;;;2.22;;
29218;SDS011;16421;50.202;7.852;2022-12-29T22:57:07;8.15;;;2.13;;
29218;SDS011;16421;50.202;7.852;2022-12-29T23:02:12;12.13;;;2.40;;
29218;SDS011;16421;50.202;7.852;2022-12-29T23:07:16;9.75;;;2.22;;
29218;SDS011;16421;50.202;7.852;2022-12-29T23:12:19;9.23;;;2.10;;
29218;SDS011;16421;50.202;7.852;2022-12-29T23:17:24;10.82;;;2.60;;
29218;SDS011;16421;50.202;7.852;2022-12-29T23:22:28;6.25;;;1.40;;
29218;SDS011;16421;50.202;7.852;2022-12-29T23:27:31;5.95;;;1.58;;
29218;SDS011;16421;50.202;7.852;2022-12-29T23:32:36;6.93;;;1.35;;
29218;SDS011;16421;50.202;7.852;2022-12-29T23:37:40;2.50;;;1.00;;
29218;SDS011;16421;50.202;7.852;2022-12-29T23:42:43;3.33;;;1.08;;
29218;SDS011;16421;50.202;7.852;2022-12-29T23:47:50;4.77;;;1.07;;
29218;SDS011;16421;50.202;7.852;2022-12-29T23:52:54;7.68;;;1.48;;
29218;SDS011;16421;50.202;7.852;2022-12-29T23:57:57;5.28;;;1.35;;
